Webb City, Missouri
Current Conditions -  °F | °C
As of 4:53 PM on Saturday 20 Dec 2014 (Local Time) from KJLN Reporting Station
Overcast Overcast  
Wind Chill: 38°   Ceiling: 2200
Heat Index: 43°   Visibility: 10mi
Dew Point: 35°   Wind: 9mph
Humidity: 74%   Direction: 200°SSW
Pressure: 30.18"   Gusts: NA
Location:  37.15°N, 94.46°W
Report Text: KJLN 202253Z 20008KT 10SM OVC022 06/02 A3018 RMK AO2 SLP223 T00610017 $
Loading
Personal Weather Stations






























Interactive Weather Map New forecast layout! Learn more

10-Day Weather Forecast

Advertisements
Track Severe Weather on mobile